Ferndale, CA (95536)

6:24 PM PST on January 24, 2017 (GMT -0800)
Side yard | | Change Station
Active Advisory: Small Craft Advisory

Elev 50 ft 40.58 °N, 124.26 °W | Updated 6 minutes ago

Clear
Clear
43.1 °F
Feels Like 43 °F
N
1.0
Wind Variable Wind from SSE
Gusts 4.0 mph

Today
High -- | Low -- °F
--% Chance of Precip.
Yesterday
High -- | Low -- °F
Precip. -- in
Pressure 30.19 in
Visibility 10.0 miles
Clouds Clear
Windchill 43 °F
Dew Point 40 °F
Humidity 89%
Rainfall 0.00 in
Snow Depth Not available.
7:33 AM 5:25 PM
Waning Crescent, 8% visible
METAR KFOT 250215Z AUTO 28003KT 10SM CLR 07/04 A3019 RMK AO1
Pressure 30.19 in
Visibility 10.0 miles
Clouds Clear
Windchill 43 °F
Dew Point 40 °F
Humidity 89%
Rainfall 0.00 in
Snow Depth Not available.
7:33 AM 5:25 PM
Waning Crescent, 8% visible
METAR KFOT 250215Z AUTO 28003KT 10SM CLR 07/04 A3019 RMK AO1

Get Your Daily Forecast Email!

Thanks for signing up!

Be on the lookout for a verification email in your inbox.

You'll start receiving the daily forecast at 8 AM.

×

10-Day Weather Forecast

Almanac

Astronomy

Jan. 24, 2017 Rise Set
Actual Time
Civil Twilight
Nautical Twilight
Astronomical Twilight
Moon
Length of Visible Light
Length of Day
Tomorrow will be .
, % of the Moon is Illuminated

Today's Extremes

State Highs State Lows

Community

WunderPhotos

Upload Photos

1,962,540 photos uploaded!

WunderBlog® & News

Nearby

Air Quality

  Air Quality AQ Index Pollutant
Not available.

Snow Depth

Station Depth Elevation

Earthquake Activity

City Distance Mag. Time & Date
Minimum magnitude displayed is 2.5.

Coastal Water Temperatures

Place Temperature

Stations

Nearby Weather Stations

Station Location Temp. Windchill Dew Point Humidity Wind Precip. Elev Updated Type
                   

Watches & Warnings

Small Craft Advisory
Issued: 2:42 PM PST Jan. 24, 2017 – National Weather Service

... Small Craft Advisory in effect from 4 PM Wednesday to 10 am
PST Friday...

The National Weather Service in Eureka has issued a Small Craft
Advisory... which is in effect from 4 PM Wednesday to 10 am PST
Friday.

* Winds... NE wind 5 to 15 kt becoming southerly during
Wednesday... then returning to northerly on Thursday.

* Waves... seas will build to 15 feet at 20 seconds during
Wednesday night... then subside to 10 feet at 16 seconds by
Friday morning.

Precautionary/preparedness actions...

A Small Craft Advisory for hazardous seas means that waves will be
steep enough to create a potential hazard to smaller vessels and
inexperienced mariners.